Hercílio Luz International Airport

SBFL · Santa Catarina, Brazil

METAR history SBFL · Hercílio Luz International Airport

Below you see METARs of the last few days. Select a year to browse through older METARs, from the year 2007 onwards.

December 2, 2022

Time Code Weather Temp. Visibility Ceiling Wind METAR/SPECI
16:00
V
28 °C 10 km+ - 080° 080° 10 kt METAR SBFL 021900Z 08010KT 9999 FEW030 28/23 Q1008
15:00
V
28 °C 10 km+ - 080° 080° 14 kt METAR SBFL 021800Z 08014KT 9999 FEW030 28/24 Q1009
14:00
V
30 °C 10 km+ - 360° 360° 8 kt METAR SBFL 021700Z 36008KT 9999 FEW030 30/23 Q1009
13:00
V
29 °C 10 km+ - 360° 360° 6 kt METAR SBFL 021600Z 36006KT 320V050 9999 FEW030 29/23 Q1010
12:00
V
29 °C 10 km+ - 350° 350° 8 kt METAR SBFL 021500Z 35008KT 9999 FEW030 29/22 Q1011
11:00
V
28 °C 10 km+ - 340° 340° 9 kt METAR SBFL 021400Z 34009KT 9999 SCT030 28/22 Q1012
10:00
V
27 °C 10 km+ 3,000 ft 350° 350° 9 kt METAR SBFL 021300Z 35009KT 9999 FEW015 BKN030 27/23 Q1012
09:00
V
26 °C 10 km+ 3,000 ft 010° 010° 9 kt METAR SBFL 021200Z 01009KT 9999 SCT025 BKN030 26/23 Q1012
08:35
V
25 °C 10 km+ 3,000 ft 360° 360° 10 kt METAR SBFL 021135Z 36010KT 9999 SCT014 BKN030 25/23 Q1012
08:00
I
25 °C 10 km+ 800 ft 340° 340° 8 kt METAR SBFL 021100Z 34008KT 9999 BKN008 BKN023 25/24 Q1012
07:05
I
24 °C 10 km+ 700 ft 330° 330° 6 kt METAR SBFL 021005Z 33006KT 9999 BKN007 BKN020 24/23 Q1012
07:00
M
25 °C 10 km+ 1,500 ft 340° 340° 7 kt METAR SBFL 021000Z 34007KT 9999 VCSH FEW007 BKN015 25/24 Q1011
06:00
M
24 °C 10 km+ 1,500 ft 010° 010° 4 kt METAR SBFL 020900Z 01004KT 9999 BKN015 24/23 Q1011
05:00
V
23 °C 10 km+ - 020° 020° 4 kt METAR SBFL 020800Z 02004KT 9999 SCT012 23/23 Q1010
04:00
V
24 °C 10 km+ - 010° 010° 5 kt METAR SBFL 020700Z 01005KT 9999 SCT010 24/23 Q1009
03:00
M
24 °C 10 km+ 1,500 ft 350° 350° 5 kt METAR SBFL 020600Z 35005KT 9999 SCT010 BKN015 24/23 Q1009
02:00
M
24 °C 10 km+ 1,500 ft 360° 360° 4 kt METAR SBFL 020500Z 36004KT 9999 SCT010 BKN015 24/23 Q1009
01:00
V
24 °C 10 km+ 3,000 ft 360° 360° 6 kt METAR SBFL 020400Z 36006KT 9999 SCT010 BKN030 24/23 Q1010
00:00
M
24 °C 10 km+ 1,500 ft 010° 010° 5 kt METAR SBFL 020300Z 01005KT 9999 BKN015 BKN030 24/23 Q1010

December 1, 2022

Time Code Weather Temp. Visibility Ceiling Wind METAR/SPECI
23:00
M
24 °C 10 km+ 1,500 ft 010° 010° 6 kt METAR SBFL 020200Z 01006KT 9999 BKN015 24/23 Q1010
22:00
M
24 °C 10 km+ 1,700 ft Var Var 2 kt METAR SBFL 020100Z VRB02KT 9999 BKN017 24/23 Q1010
21:00
M
24 °C 10 km+ 1,700 ft 240° 240° 2 kt METAR SBFL 020000Z 24002KT 9999 BKN017 24/23 Q1010
20:00
V
24 °C 10 km+ - Var Var 2 kt METAR SBFL 012300Z VRB02KT 9999 SCT017 SCT043 24/23 Q1009
19:00
V
24 °C 10 km+ - 090° 090° 5 kt METAR SBFL 012200Z 09005KT 9999 FEW021 SCT046 24/23 Q1008
18:00
V
25 °C 10 km+ 3,800 ft 080° 080° 6 kt METAR SBFL 012100Z 08006KT 9999 SCT021 BKN038 25/22 Q1007
17:00
V
26 °C 10 km+ - 070° 070° 1 kt METAR SBFL 012000Z 07001KT 9999 SCT030 SCT080 26/23 Q1006
16:00
V
26 °C 10 km+ - 080° 080° 9 kt METAR SBFL 011900Z 08009KT 9999 SCT023 26/23 Q1006
15:00
V
28 °C 10 km+ - 340° 340° 11 kt METAR SBFL 011800Z 34011KT 9999 SCT026 28/23 Q1007
14:09
V
28 °C 10 km+ - 030° 030° 6 kt METAR SBFL 011709Z 03006KT 340V070 9999 SCT017 28/23 Q1007
14:00
M
27 °C 10 km+ 1,400 ft 040° 040° 8 kt METAR SBFL 011700Z 04008KT 9999 BKN014 BKN070 27/22 Q1008
13:00
M
27 °C 10 km+ 1,400 ft 330° 330° 12 kt METAR SBFL 011600Z 33012KT 9999 BKN014 BKN070 27/23 Q1008
12:00
M
27 °C 10 km+ 1,400 ft 350° 350° 11 kt METAR SBFL 011500Z 35011KT 9999 BKN014 BKN070 27/23 Q1008
11:00
M
25 °C 10 km+ 1,400 ft 010° 010° 8 kt METAR SBFL 011400Z 01008KT 9999 BKN014 BKN020 BKN070 25/23 Q1009
10:00
M
25 °C 10 km+ 1,400 ft 030° 030° 6 kt METAR SBFL 011300Z 03006KT 9999 BKN014 BKN020 BKN070 25/22 Q1009
09:00
I
25 °C 4 km 1,400 ft 010° 010° 13 kt METAR SBFL 011200Z 01013KT 4000 BR BKN014 BKN020 BKN070 25/23 Q1009
08:00
I
25 °C 4.5 km 1,400 ft 010° 010° 10 kt METAR SBFL 011100Z 01010KT 4500 -RA BKN014 BKN020 FEW030TCU BKN070 25/23 Q1008
07:00
I
24 °C 4.5 km 1,400 ft 010° 010° 8 kt METAR SBFL 011000Z 01008KT 4500 -RA BR BKN014 BKN020 FEW030TCU BKN070 24/23 Q1007
06:00
I
24 °C 4.5 km 1,300 ft 020° 020° 9 kt METAR SBFL 010900Z 02009KT 360V080 4500 -RA BKN013 BKN021 FEW030TCU OVC050 24/22 Q1007 RETSRA
05:00
I
24 °C 4 km 1,200 ft 030° 030° 9 kt METAR SBFL 010800Z 03009KT 4000 TSRA BKN012 BKN021 FEW030CB OVC050 24/22 Q1006
04:00
I
24 °C 4.5 km 1,200 ft 100° 100° 10 kt METAR SBFL 010700Z 10010KT 350V050 4500 TSRA BKN012 BKN021 FEW030CB OVC050 24/22 Q1005
03:00
I
24 °C 4.5 km 1,200 ft 030° 030° 16 kt METAR SBFL 010600Z 03016KT 4500 -TSRA BKN012 BKN021 FEW030CB OVC050 24/22 Q1005 RERA
02:11
I
23 °C 2.5 km 1,200 ft 050° 050° 15 kt METAR SBFL 010511Z 05015KT 020V080 2500 +TSRA BKN012 BKN021 FEW030CB OVC050 23/22 Q1005
02:00
I
24 °C 4.5 km 1,200 ft 050° 050° 14 - 25 kt METAR SBFL 010500Z 05014G25KT 020V080 4500 -TSRA BKN012 BKN021 FEW030CB OVC050 24/22 Q1005 RERA
01:34
I
23 °C 3 km 1,000 ft 040° 040° 17 kt METAR SBFL 010434Z 04017KT 3000 +TSRA BKN010 BKN021 FEW030CB OVC080 23/23 Q1005
01:18
L
23 °C 1 km 1,000 ft 060° 060° 15 - 29 kt METAR SBFL 010418Z 06015G29KT 030V090 1000 +TSRA BKN010 BKN021 FEW030CB OVC080 23/22 Q1005 RERA
01:00
I
23 °C 3 km 1,000 ft 060° 060° 11 kt METAR SBFL 010400Z 06011KT 030V120 3000 TSRA BKN010 BKN021 FEW030CB OVC080 23/23 Q1005 RERA
00:00
I
22 °C 1.5 km 1,000 ft 060° 060° 15 kt METAR SBFL 010300Z 06015KT 1500 +TSRA BKN010 BKN021 FEW030CB OVC080 22/22 Q1007

November 30, 2022

Time Code Weather Temp. Visibility Ceiling Wind METAR/SPECI
23:00
I
22 °C 3 km 1,000 ft 080° 080° 16 kt METAR SBFL 010200Z 08016KT 050V110 3000 +TSRA BKN010 BKN021 FEW030CB OVC080 22/21 Q1007
22:27
I
22 °C 3 km 1,000 ft 070° 070° 18 kt METAR SBFL 010127Z 07018KT 3000 +TSRA BKN010 BKN021 FEW030CB OVC080 22/22 Q1007
22:00
I
22 °C 2 km 1,000 ft 070° 070° 18 - 28 kt METAR SBFL 010100Z 07018G28KT 2000 +TSRA BKN010 BKN021 FEW030CB OVC080 22/22 Q1007
21:00
I
23 °C 2.5 km 1,000 ft 080° 080° 14 - 29 kt METAR SBFL 010000Z 08014G29KT 2500 +TSRA BKN010 BKN021 FEW030CB OVC080 23/22 Q1007 RERA
20:22
I
23 °C 3.5 km 900 ft 070° 070° 17 - 29 kt METAR SBFL 302322Z 07017G29KT 3500 TSRA BKN009 BKN021 FEW030CB OVC080 23/23 Q1006
20:00
I
23 °C 2.5 km 900 ft 070° 070° 14 kt METAR SBFL 302300Z 07014KT 2500 R32///// R14/1500 TSRA BKN009 BKN021 FEW030CB OVC080 23/23 Q1006
19:27
I
23 °C 4.5 km 1,100 ft 070° 070° 16 kt METAR SBFL 302227Z 07016KT 4500 TSRA BKN011 BKN021 FEW030CB OVC080 23/23 Q1006 RERA
19:00
L
22 °C 800 m 500 ft 350° 350° 2 kt METAR SBFL 302200Z 35002KT 0800 R32///// R14/0700 +TSRA BKN005 BKN021 FEW030CB OVC080 22/22 Q1006
18:32
L
22 °C 700 m 500 ft 100° 100° 7 - 20 kt METAR SBFL 302132Z 10007G20KT 0700 R14///// R32/1800 +TSRA BKN005 BKN021 FEW030CB OVC080 22/22 Q1006
18:21
I
21 °C 2.1 km 700 ft 120° 120° 8 kt METAR SBFL 302121Z 12008KT 2100 +TSRA BKN007 BKN021 FEW030CB OVC080 21/21 Q1006 RERA
18:12
I
21 °C 2.1 km 700 ft 090° 090° 11 kt METAR SBFL 302112Z 09011KT 2100 TSRA BKN007 BKN021 FEW030CB OVC080 21/21 Q1006
18:00
I
22 °C 2.1 km 700 ft 070° 070° 9 kt METAR SBFL 302100Z 07009KT 2100 RA BKN007 BKN021 OVC080 22/21 Q1006
17:00
I
23 °C 2.1 km 1,100 ft 090° 090° 7 kt METAR SBFL 302000Z 09007KT 2100 RA BKN011 BKN021 OVC080 23/22 Q1005
16:00
M
23 °C 7 km 1,100 ft 080° 080° 4 kt METAR SBFL 301900Z 08004KT 7000 -RA BKN011 BKN021 OVC080 23/21 Q1006
15:00
I
23 °C 4 km 800 ft 050° 050° 8 kt METAR SBFL 301800Z 05008KT 4000 -RA BKN008 BKN021 OVC080 23/21 Q1006
14:00
I
22 °C 2.5 km 800 ft 090° 090° 11 kt METAR SBFL 301700Z 09011KT 2500 -RA BKN008 BKN018 FEW025TCU OVC080 22/21 Q1006 RETS
13:00
I
24 °C 2.5 km 800 ft 070° 070° 11 kt METAR SBFL 301600Z 07011KT 2500 -TSRA BKN008 BKN018 FEW025CB OVC080 24/22 Q1007
12:00
I
24 °C 2.5 km 800 ft 060° 060° 12 kt METAR SBFL 301500Z 06012KT 030V090 2500 -TSRA BKN008 BKN020 FEW025CB OVC080 24/22 Q1007 RERA
11:00
I
23 °C 2 km 700 ft 070° 070° 14 kt METAR SBFL 301400Z 07014KT 040V100 2000 TSRA BKN007 BKN020 FEW025CB 23/22 Q1007
10:17
I
23 °C 2 km 700 ft 070° 070° 13 - 26 kt METAR SBFL 301317Z 07013G26KT 040V110 2000 TSRA BKN007 BKN020 FEW025CB 23/23 Q1007
10:00
I
22 °C 2 km 700 ft 090° 090° 14 kt METAR SBFL 301300Z 09014KT 2000 RA BKN007 OVC018 22/22 Q1007
09:00
I
23 °C 2 km 700 ft 090° 090° 13 kt METAR SBFL 301200Z 09013KT 2000 -RA BKN007 OVC018 23/23 Q1007
08:00
I
23 °C 2 km 900 ft 110° 110° 11 kt METAR SBFL 301100Z 11011KT 2000 -RA BKN009 OVC018 23/22 Q1007
07:00
I
22 °C 2 km 700 ft 100° 100° 10 kt METAR SBFL 301000Z 10010KT 2000 -RA BR BKN007 OVC018 22/22 Q1007

We and third parties follow your internet behavior on our website with cookies. If you continue, we assume you agree with our cookie policy.